Time;durP1;ratioP1;P1;durP2;ratioP2;P2;SDS_P1;SDS_P2;PMS_P1;PMS_P2;Temp;Humidity;BMP_temperature;BMP_pressure;BME280_temperature;BME280_humidity;BME280_pressure;Samples;Min_cycle;Max_cycle;Signal;HPM_P1;HPM_P2
2024/03/19 00:01:41;;;;;;;1.90;1.25;;;;;;;;;;4994327;28;20463;-69
2024/03/19 00:04:06;;;;;;;2.67;1.33;;;;;;;;;;4987344;28;20053;-68
2024/03/19 00:06:31;;;;;;;1.92;1.20;;;;;;;;;;4987436;28;20434;-68
2024/03/19 00:08:57;;;;;;;2.15;1.20;;;;;;;;;;4990535;28;20041;-71
2024/03/19 00:11:25;;;;;;;1.90;1.20;;;;;;;;;;4996790;28;20041;-70
2024/03/19 00:13:50;;;;;;;1.67;1.10;;;;;;;;;;4993110;28;20031;-69
2024/03/19 00:16:15;;;;;;;2.38;1.33;;;;;;;;;;4996864;28;20038;-68
2024/03/19 00:18:42;;;;;;;1.60;1.08;;;;;;;;;;4987602;28;20046;-69
2024/03/19 00:21:07;;;;;;;1.65;1.17;;;;;;;;;;4995780;28;20026;-69
2024/03/19 00:23:33;;;;;;;2.22;1.27;;;;;;;;;;5006387;28;20053;-69
2024/03/19 00:25:58;;;;;;;1.55;1.20;;;;;;;;;;4993447;28;20038;-68
2024/03/19 00:28:23;;;;;;;2.42;1.40;;;;;;;;;;4990716;28;20052;-69
2024/03/19 00:30:49;;;;;;;2.33;1.30;;;;;;;;;;5001201;28;20117;-68
2024/03/19 00:33:14;;;;;;;1.42;0.90;;;;;;;;;;4997420;28;20034;-67
2024/03/19 00:35:42;;;;;;;1.80;1.10;;;;;;;;;;4987145;28;20054;-67
2024/03/19 00:38:08;;;;;;;2.28;1.23;;;;;;;;;;5001183;28;20050;-68
2024/03/19 00:40:35;;;;;;;1.73;1.08;;;;;;;;;;5005307;28;20051;-69
2024/03/19 00:43:00;;;;;;;2.58;1.27;;;;;;;;;;4986812;28;20436;-69
2024/03/19 00:45:25;;;;;;;1.80;1.20;;;;;;;;;;4987079;28;20117;-68
2024/03/19 00:47:51;;;;;;;1.50;1.08;;;;;;;;;;4997532;28;20044;-67
2024/03/19 00:50:16;;;;;;;2.28;1.10;;;;;;;;;;5011662;28;20042;-69
2024/03/19 00:52:42;;;;;;;2.00;1.10;;;;;;;;;;5011005;28;20572;-69
2024/03/19 00:55:08;;;;;;;2.13;1.30;;;;;;;;;;4999747;28;20042;-68
2024/03/19 00:57:34;;;;;;;1.98;1.10;;;;;;;;;;4992829;28;20035;-67
2024/03/19 00:59:59;;;;;;;2.03;1.10;;;;;;;;;;4991660;28;20128;-69
2024/03/19 01:02:25;;;;;;;2.08;1.23;;;;;;;;;;5006986;28;20131;-69
2024/03/19 01:04:50;;;;;;;1.80;1.30;;;;;;;;;;4996786;28;21395;-69
2024/03/19 01:07:15;;;;;;;1.80;1.10;;;;;;;;;;4998773;28;20538;-68
2024/03/19 01:09:40;;;;;;;1.70;1.17;;;;;;;;;;4998190;28;20273;-66
2024/03/19 01:12:06;;;;;;;1.80;1.15;;;;;;;;;;4989849;28;20031;-67
2024/03/19 01:14:32;;;;;;;2.03;1.08;;;;;;;;;;4995086;28;20483;-65
2024/03/19 01:16:57;;;;;;;2.17;1.10;;;;;;;;;;5000630;28;20462;-68
2024/03/19 01:19:23;;;;;;;1.65;1.10;;;;;;;;;;4995373;28;20156;-68
2024/03/19 01:21:49;;;;;;;1.73;1.30;;;;;;;;;;5005921;28;20079;-66
2024/03/19 01:24:14;;;;;;;2.50;1.30;;;;;;;;;;5003024;28;20109;-69
2024/03/19 01:26:39;;;;;;;1.00;0.90;;;;;;;;;;5002377;28;20018;-70
2024/03/19 01:29:05;;;;;;;2.30;1.50;;;;;;;;;;5003875;28;20030;-69
2024/03/19 01:31:30;;;;;;;1.90;1.10;;;;;;;;;;5005054;28;20522;-69
2024/03/19 01:33:56;;;;;;;2.17;1.20;;;;;;;;;;4986562;28;20041;-69
2024/03/19 01:36:21;;;;;;;1.50;1.08;;;;;;;;;;4987331;28;20823;-69
2024/03/19 01:38:46;;;;;;;2.10;1.35;;;;;;;;;;4993481;28;20111;-69
2024/03/19 01:41:13;;;;;;;1.83;0.95;;;;;;;;;;5000292;28;20149;-69
2024/03/19 01:43:39;;;;;;;1.88;1.20;;;;;;;;;;5000953;28;20028;-68
2024/03/19 01:46:07;;;;;;;2.33;1.30;;;;;;;;;;5019984;28;20022;-68
2024/03/19 01:48:36;;;;;;;2.10;1.30;;;;;;;;;;4989585;28;20521;-69
2024/03/19 01:51:01;;;;;;;2.30;1.10;;;;;;;;;;4989244;28;20029;-68
2024/03/19 01:53:27;;;;;;;2.00;1.25;;;;;;;;;;4997459;28;20034;-69
2024/03/19 01:55:52;;;;;;;1.80;1.20;;;;;;;;;;4984432;28;20475;-70
2024/03/19 01:58:18;;;;;;;2.10;1.23;;;;;;;;;;4999071;28;20413;-69
2024/03/19 02:00:44;;;;;;;1.90;1.27;;;;;;;;;;4993370;28;20461;-69
2024/03/19 02:03:10;;;;;;;2.10;1.40;;;;;;;;;;4985269;28;20061;-70
2024/03/19 02:05:35;;;;;;;1.55;1.15;;;;;;;;;;4987709;28;20032;-68
2024/03/19 02:08:01;;;;;;;2.03;1.33;;;;;;;;;;4997416;28;20092;-68
2024/03/19 02:10:26;;;;;;;1.92;1.33;;;;;;;;;;4994784;28;20030;-69
2024/03/19 02:12:51;;;;;;;3.17;1.00;;;;;;;;;;5000488;28;20042;-69
2024/03/19 02:15:17;;;;;;;1.75;1.10;;;;;;;;;;4996108;28;20458;-68
2024/03/19 02:17:42;;;;;;;1.45;1.05;;;;;;;;;;4997260;28;20038;-67
2024/03/19 02:20:12;;;;;;;1.63;0.90;;;;;;;;;;4985716;28;20038;-68
2024/03/19 02:22:42;;;;;;;1.50;1.00;;;;;;;;;;4997905;28;20041;-69
2024/03/19 02:25:07;;;;;;;1.58;1.10;;;;;;;;;;5005193;28;20038;-67
2024/03/19 02:27:32;;;;;;;1.95;1.10;;;;;;;;;;5005069;28;20575;-68
2024/03/19 02:29:58;;;;;;;2.42;1.30;;;;;;;;;;5004996;28;20044;-67
2024/03/19 02:32:23;;;;;;;2.00;1.10;;;;;;;;;;5003646;28;20449;-67
2024/03/19 02:34:49;;;;;;;2.38;1.27;;;;;;;;;;4985233;28;20113;-69
2024/03/19 02:37:14;;;;;;;2.28;1.10;;;;;;;;;;4986336;28;20035;-69
2024/03/19 02:39:39;;;;;;;1.80;1.13;;;;;;;;;;5002730;28;20046;-69
2024/03/19 02:42:05;;;;;;;1.65;1.17;;;;;;;;;;5003587;28;20049;-69
2024/03/19 02:44:30;;;;;;;2.08;1.35;;;;;;;;;;4991160;28;20536;-68
2024/03/19 02:46:56;;;;;;;2.05;1.25;;;;;;;;;;4990390;28;20038;-68
2024/03/19 02:49:21;;;;;;;1.75;0.93;;;;;;;;;;4998990;28;20042;-70
2024/03/19 02:51:46;;;;;;;2.72;1.30;;;;;;;;;;5004051;28;20046;-70
2024/03/19 02:54:12;;;;;;;2.80;1.20;;;;;;;;;;4988483;28;20073;-70
2024/03/19 02:56:37;;;;;;;2.10;1.20;;;;;;;;;;4983437;28;20034;-69
2024/03/19 02:59:02;;;;;;;1.80;1.13;;;;;;;;;;4985387;28;20041;-68
2024/03/19 03:01:28;;;;;;;2.20;1.00;;;;;;;;;;4992906;28;20104;-68
2024/03/19 03:03:54;;;;;;;1.67;1.10;;;;;;;;;;4988098;28;20050;-68
2024/03/19 03:06:19;;;;;;;2.00;1.00;;;;;;;;;;5008420;28;20043;-68
2024/03/19 03:08:45;;;;;;;1.40;0.90;;;;;;;;;;5001614;28;20111;-68
2024/03/19 03:11:10;;;;;;;1.70;1.20;;;;;;;;;;5003896;28;20095;-68
2024/03/19 03:13:35;;;;;;;1.90;1.02;;;;;;;;;;5005225;28;20049;-67
2024/03/19 03:16:01;;;;;;;2.38;1.00;;;;;;;;;;4994184;28;20049;-66
2024/03/19 03:18:26;;;;;;;2.05;1.17;;;;;;;;;;4988961;28;20049;-66
2024/03/19 03:20:52;;;;;;;1.92;1.02;;;;;;;;;;4995914;28;20079;-70
2024/03/19 03:23:17;;;;;;;2.03;1.20;;;;;;;;;;4999787;28;20053;-69
2024/03/19 03:25:42;;;;;;;1.48;1.10;;;;;;;;;;4994970;28;20033;-67
2024/03/19 03:28:08;;;;;;;1.30;0.93;;;;;;;;;;5006850;28;20124;-69
2024/03/19 03:30:33;;;;;;;2.08;1.10;;;;;;;;;;5004151;28;20030;-68
2024/03/19 03:32:58;;;;;;;1.55;1.05;;;;;;;;;;5039289;28;20478;-68
2024/03/19 03:35:24;;;;;;;1.50;1.02;;;;;;;;;;5002961;28;20030;-69
2024/03/19 03:37:49;;;;;;;1.60;1.13;;;;;;;;;;4994249;28;20042;-68
2024/03/19 03:40:17;;;;;;;1.73;1.15;;;;;;;;;;5004224;28;20175;-67
2024/03/19 03:42:46;;;;;;;2.15;1.23;;;;;;;;;;4990787;28;20507;-68
2024/03/19 03:45:11;;;;;;;1.77;1.20;;;;;;;;;;5005882;28;20033;-70
2024/03/19 03:47:37;;;;;;;1.80;1.15;;;;;;;;;;4987903;28;20048;-70
2024/03/19 03:50:03;;;;;;;1.58;0.95;;;;;;;;;;5003505;28;20064;-67
2024/03/19 03:52:32;;;;;;;1.90;1.10;;;;;;;;;;5003905;28;20123;-68
2024/03/19 03:54:58;;;;;;;1.47;0.80;;;;;;;;;;4988060;28;20470;-68
2024/03/19 03:57:23;;;;;;;1.50;1.02;;;;;;;;;;5005898;28;20288;-67
2024/03/19 03:59:49;;;;;;;1.60;1.08;;;;;;;;;;5005157;28;20048;-68
2024/03/19 04:02:14;;;;;;;1.55;1.00;;;;;;;;;;4994037;28;20034;-68
2024/03/19 04:04:39;;;;;;;1.73;1.17;;;;;;;;;;4991396;28;20065;-67
2024/03/19 04:07:04;;;;;;;1.60;1.08;;;;;;;;;;4996049;28;20077;-69
2024/03/19 04:09:30;;;;;;;1.80;1.10;;;;;;;;;;5004212;28;20057;-68
2024/03/19 04:11:55;;;;;;;2.50;1.05;;;;;;;;;;5006604;28;21096;-68
2024/03/19 04:14:20;;;;;;;1.98;1.10;;;;;;;;;;5006305;28;20100;-68
2024/03/19 04:16:46;;;;;;;1.67;1.10;;;;;;;;;;5003277;28;20123;-67
2024/03/19 04:19:11;;;;;;;1.67;1.00;;;;;;;;;;5001594;28;20061;-71
2024/03/19 04:21:37;;;;;;;1.60;1.02;;;;;;;;;;4996396;28;20744;-68
2024/03/19 04:24:02;;;;;;;1.38;0.90;;;;;;;;;;5006457;28;20030;-68
2024/03/19 04:26:28;;;;;;;1.60;1.17;;;;;;;;;;5002949;28;20034;-68
2024/03/19 04:28:53;;;;;;;4.15;1.10;;;;;;;;;;5002534;28;20049;-67
2024/03/19 04:31:18;;;;;;;1.50;0.98;;;;;;;;;;5004432;28;20049;-68
2024/03/19 04:33:44;;;;;;;1.42;0.90;;;;;;;;;;4997543;28;20030;-68
2024/03/19 04:36:09;;;;;;;1.75;1.00;;;;;;;;;;5002504;28;20034;-67
2024/03/19 04:38:34;;;;;;;1.98;1.35;;;;;;;;;;5006316;28;20042;-68
2024/03/19 04:40:59;;;;;;;2.90;1.27;;;;;;;;;;4999261;28;20471;-67
2024/03/19 04:43:25;;;;;;;2.65;1.40;;;;;;;;;;4990097;28;20045;-69
2024/03/19 04:45:50;;;;;;;1.30;1.00;;;;;;;;;;4987298;28;20049;-68
2024/03/19 04:48:15;;;;;;;1.85;0.93;;;;;;;;;;5002374;28;20054;-68
2024/03/19 04:50:41;;;;;;;1.88;1.15;;;;;;;;;;5000423;28;20033;-68
2024/03/19 04:53:07;;;;;;;1.58;0.95;;;;;;;;;;5006402;28;20030;-68
2024/03/19 04:55:32;;;;;;;1.80;1.15;;;;;;;;;;4998075;28;20459;-69
2024/03/19 04:57:57;;;;;;;1.48;1.05;;;;;;;;;;4993178;28;20108;-69
2024/03/19 05:00:23;;;;;;;1.33;1.00;;;;;;;;;;4999854;28;20034;-69
2024/03/19 05:02:48;;;;;;;1.40;0.90;;;;;;;;;;5006198;28;20096;-68
2024/03/19 05:05:13;;;;;;;2.03;1.10;;;;;;;;;;4999030;28;20863;-68
2024/03/19 05:07:40;;;;;;;1.45;1.00;;;;;;;;;;4994348;28;20569;-67
2024/03/19 05:10:06;;;;;;;1.70;1.20;;;;;;;;;;4994092;28;20045;-67
2024/03/19 05:12:31;;;;;;;1.25;0.90;;;;;;;;;;4996199;28;20041;-68
2024/03/19 05:14:57;;;;;;;1.35;1.10;;;;;;;;;;4992091;28;20034;-66
2024/03/19 05:17:22;;;;;;;1.77;1.10;;;;;;;;;;5004346;28;20026;-68
2024/03/19 05:19:47;;;;;;;2.58;1.10;;;;;;;;;;5000527;28;20093;-69
2024/03/19 05:22:12;;;;;;;1.63;1.15;;;;;;;;;;4994621;28;20149;-68
2024/03/19 05:24:38;;;;;;;2.35;1.00;;;;;;;;;;5003031;28;20046;-65
2024/03/19 05:27:03;;;;;;;2.08;0.93;;;;;;;;;;4987384;28;20120;-62
2024/03/19 05:29:28;;;;;;;1.58;1.08;;;;;;;;;;5001636;28;20057;-64
2024/03/19 05:31:54;;;;;;;2.47;1.10;;;;;;;;;;5002577;28;20037;-64
2024/03/19 05:34:19;;;;;;;2.15;1.20;;;;;;;;;;5001985;28;20093;-64
2024/03/19 05:36:46;;;;;;;1.98;1.30;;;;;;;;;;4996560;28;20042;-65
2024/03/19 05:39:11;;;;;;;1.73;1.20;;;;;;;;;;5003160;28;20129;-64
2024/03/19 05:41:36;;;;;;;2.10;1.10;;;;;;;;;;4997518;28;20531;-65
2024/03/19 05:44:02;;;;;;;3.17;1.02;;;;;;;;;;5003989;28;20034;-65
2024/03/19 05:46:28;;;;;;;1.63;0.90;;;;;;;;;;5004588;28;20045;-65
2024/03/19 05:48:53;;;;;;;1.65;0.98;;;;;;;;;;5002455;28;20077;-65
2024/03/19 05:51:18;;;;;;;1.98;1.00;;;;;;;;;;4999097;28;20402;-63
2024/03/19 05:53:44;;;;;;;2.22;1.10;;;;;;;;;;5000123;28;20367;-64
2024/03/19 05:56:09;;;;;;;1.70;1.08;;;;;;;;;;5000147;28;20124;-65
2024/03/19 05:58:35;;;;;;;2.65;1.10;;;;;;;;;;4996151;28;20045;-64
2024/03/19 06:01:00;;;;;;;2.13;1.15;;;;;;;;;;4994749;28;20045;-63
2024/03/19 06:03:27;;;;;;;2.58;1.10;;;;;;;;;;4997307;28;20041;-63
2024/03/19 06:05:53;;;;;;;1.55;1.00;;;;;;;;;;4998250;28;20548;-64
2024/03/19 06:08:19;;;;;;;2.97;1.20;;;;;;;;;;4997829;28;20154;-64
2024/03/19 06:10:44;;;;;;;2.58;1.13;;;;;;;;;;4997415;28;20037;-64
2024/03/19 06:13:10;;;;;;;1.25;0.90;;;;;;;;;;4998383;28;20030;-63
2024/03/19 06:15:35;;;;;;;1.70;1.10;;;;;;;;;;4999122;28;20037;-63
2024/03/19 06:18:01;;;;;;;1.50;1.10;;;;;;;;;;4996645;28;20052;-63
2024/03/19 06:20:27;;;;;;;2.00;1.23;;;;;;;;;;4997072;28;20050;-63
2024/03/19 06:22:53;;;;;;;2.55;1.20;;;;;;;;;;4997279;28;20040;-63
2024/03/19 06:25:19;;;;;;;1.90;1.10;;;;;;;;;;4998383;28;20112;-63
2024/03/19 06:27:44;;;;;;;2.03;1.10;;;;;;;;;;4996848;28;20413;-63
2024/03/19 06:30:09;;;;;;;1.80;1.08;;;;;;;;;;4997778;28;20049;-65
2024/03/19 06:32:35;;;;;;;1.90;1.15;;;;;;;;;;4998094;28;20062;-63
2024/03/19 06:35:00;;;;;;;2.13;1.02;;;;;;;;;;4998575;28;20053;-62
2024/03/19 06:37:26;;;;;;;2.35;1.00;;;;;;;;;;4998078;28;20042;-63
2024/03/19 06:39:51;;;;;;;1.55;0.98;;;;;;;;;;4997671;28;20696;-62
2024/03/19 06:42:17;;;;;;;2.05;1.10;;;;;;;;;;4997910;28;20041;-62
2024/03/19 06:44:42;;;;;;;2.35;1.15;;;;;;;;;;4996715;28;20036;-63
2024/03/19 06:47:07;;;;;;;1.90;1.17;;;;;;;;;;4998580;28;20030;-63
2024/03/19 06:49:33;;;;;;;1.67;0.90;;;;;;;;;;4999449;28;20523;-61
2024/03/19 06:51:58;;;;;;;1.52;1.10;;;;;;;;;;5013472;28;20572;-62
2024/03/19 06:54:24;;;;;;;2.58;1.10;;;;;;;;;;5001365;28;20034;-63
2024/03/19 06:56:49;;;;;;;4.22;1.20;;;;;;;;;;4997759;28;20069;-64
2024/03/19 06:59:15;;;;;;;2.90;1.10;;;;;;;;;;5000050;28;20048;-63
2024/03/19 07:01:40;;;;;;;1.98;1.00;;;;;;;;;;5002833;28;20077;-67
2024/03/19 07:04:05;;;;;;;1.83;1.15;;;;;;;;;;5001964;28;20062;-67
2024/03/19 07:06:32;;;;;;;1.90;1.27;;;;;;;;;;5002348;28;20034;-67
2024/03/19 07:08:57;;;;;;;3.03;1.10;;;;;;;;;;5001727;28;20045;-66
2024/03/19 07:11:23;;;;;;;4.95;1.20;;;;;;;;;;5000133;28;20034;-66
2024/03/19 07:13:49;;;;;;;1.85;1.23;;;;;;;;;;5001615;28;20095;-64
2024/03/19 07:16:15;;;;;;;2.10;1.05;;;;;;;;;;4997540;28;20048;-64
2024/03/19 07:18:40;;;;;;;2.17;1.25;;;;;;;;;;4999209;28;20513;-65
2024/03/19 07:21:05;;;;;;;2.53;1.20;;;;;;;;;;4999396;28;20030;-66
2024/03/19 07:23:31;;;;;;;1.80;0.90;;;;;;;;;;5001364;28;20052;-65
2024/03/19 07:25:56;;;;;;;2.42;1.20;;;;;;;;;;5001701;28;20022;-64
2024/03/19 07:28:21;;;;;;;1.83;1.10;;;;;;;;;;4998606;28;20045;-66
2024/03/19 07:30:47;;;;;;;2.15;1.10;;;;;;;;;;5001606;28;20042;-65
2024/03/19 07:33:12;;;;;;;2.45;1.05;;;;;;;;;;5001293;28;20095;-62
2024/03/19 07:35:37;;;;;;;3.05;0.90;;;;;;;;;;5000096;28;20034;-63
2024/03/19 07:38:03;;;;;;;2.90;1.20;;;;;;;;;;4999870;28;20216;-65
2024/03/19 07:40:30;;;;;;;2.10;1.10;;;;;;;;;;5001246;28;20045;-65
2024/03/19 07:42:56;;;;;;;2.33;1.20;;;;;;;;;;5000622;28;20034;-66
2024/03/19 07:45:21;;;;;;;3.10;1.50;;;;;;;;;;5001677;28;20502;-65
2024/03/19 07:47:48;;;;;;;2.80;1.20;;;;;;;;;;4998961;28;20437;-65
2024/03/19 07:50:18;;;;;;;3.28;1.23;;;;;;;;;;5000098;28;20065;-64
2024/03/19 07:52:43;;;;;;;;;;;;;;;;;;5008138;28;20068;-65
2024/03/19 07:55:09;;;;;;;3.03;1.10;;;;;;;;;;5001379;28;20408;-66
2024/03/19 07:57:34;;;;;;;1.90;1.00;;;;;;;;;;4999794;28;20116;-65
2024/03/19 08:00:09;;;;;;;3.03;1.15;;;;;;;;;;5000789;28;20304;-64
2024/03/19 08:02:34;;;;;;;2.35;0.93;;;;;;;;;;5000967;28;20056;-64
2024/03/19 08:05:00;;;;;;;2.40;1.15;;;;;;;;;;4998995;28;20951;-65
2024/03/19 08:07:25;;;;;;;3.78;1.40;;;;;;;;;;5000842;28;20038;-67
2024/03/19 08:09:51;;;;;;;3.15;1.17;;;;;;;;;;5001684;28;20032;-67
2024/03/19 08:12:17;;;;;;;4.18;1.52;;;;;;;;;;5000844;28;20050;-68
2024/03/19 08:14:43;;;;;;;3.17;1.27;;;;;;;;;;5000378;28;20104;-66
2024/03/19 08:17:08;;;;;;;3.13;1.00;;;;;;;;;;5001298;28;20512;-67
2024/03/19 08:19:34;;;;;;;4.05;1.30;;;;;;;;;;5000956;28;20059;-67
2024/03/19 08:21:59;;;;;;;5.13;1.08;;;;;;;;;;5002405;28;20030;-67
2024/03/19 08:24:24;;;;;;;1.95;1.08;;;;;;;;;;5001052;28;20109;-67
2024/03/19 08:26:50;;;;;;;2.70;1.20;;;;;;;;;;5001945;28;20029;-67
2024/03/19 08:29:16;;;;;;;2.35;1.08;;;;;;;;;;5000776;28;20049;-67
2024/03/19 08:31:41;;;;;;;3.85;1.33;;;;;;;;;;5001218;28;20417;-67
2024/03/19 08:34:06;;;;;;;3.35;1.40;;;;;;;;;;5001507;28;20046;-67
2024/03/19 08:36:32;;;;;;;2.28;1.10;;;;;;;;;;5000970;28;20713;-67
2024/03/19 08:38:57;;;;;;;3.78;1.50;;;;;;;;;;5000674;28;20532;-68
2024/03/19 08:41:23;;;;;;;1.90;1.00;;;;;;;;;;5000746;28;20049;-68
2024/03/19 08:43:50;;;;;;;3.20;1.10;;;;;;;;;;5001342;28;20099;-66
2024/03/19 08:46:17;;;;;;;2.05;1.13;;;;;;;;;;4999925;28;20038;-67
2024/03/19 08:48:42;;;;;;;5.13;1.27;;;;;;;;;;5000649;28;20045;-67
2024/03/19 08:51:07;;;;;;;3.67;1.42;;;;;;;;;;5001092;28;20025;-67
2024/03/19 08:53:33;;;;;;;2.08;1.20;;;;;;;;;;5000255;28;20038;-67
2024/03/19 08:55:59;;;;;;;3.15;1.20;;;;;;;;;;5000350;28;20036;-66
2024/03/19 08:58:25;;;;;;;4.07;1.27;;;;;;;;;;4998791;28;20518;-67
2024/03/19 09:00:50;;;;;;;2.20;1.38;;;;;;;;;;4999814;28;20125;-66
2024/03/19 09:03:15;;;;;;;3.58;1.20;;;;;;;;;;5000173;28;20138;-66
2024/03/19 09:05:40;;;;;;;2.90;1.23;;;;;;;;;;5000835;28;20073;-67
2024/03/19 09:08:06;;;;;;;2.50;1.30;;;;;;;;;;5000529;28;20041;-67
2024/03/19 09:10:33;;;;;;;3.50;1.30;;;;;;;;;;5000465;28;20057;-67
2024/03/19 09:12:59;;;;;;;1.98;1.30;;;;;;;;;;4999195;28;20049;-67
2024/03/19 09:15:26;;;;;;;1.73;1.13;;;;;;;;;;4999750;28;20033;-67
2024/03/19 09:17:53;;;;;;;3.88;1.23;;;;;;;;;;5001205;28;20482;-67
2024/03/19 09:20:18;;;;;;;2.55;1.08;;;;;;;;;;4998498;28;20057;-66
2024/03/19 09:22:44;;;;;;;2.10;1.30;;;;;;;;;;4999751;28;20017;-66
2024/03/19 09:25:09;;;;;;;2.15;1.20;;;;;;;;;;5001778;28;20034;-66
2024/03/19 09:27:39;;;;;;;2.00;1.20;;;;;;;;;;4998867;28;20561;-67
2024/03/19 09:30:07;;;;;;;2.95;1.35;;;;;;;;;;5004396;28;20049;-67
2024/03/19 09:32:33;;;;;;;3.17;1.10;;;;;;;;;;5001674;28;20125;-68
2024/03/19 09:34:58;;;;;;;3.83;1.60;;;;;;;;;;5004811;28;20112;-66
2024/03/19 09:37:23;;;;;;;3.35;1.23;;;;;;;;;;5008340;28;20407;-67
2024/03/19 09:39:49;;;;;;;2.88;1.27;;;;;;;;;;5000451;28;20034;-67
2024/03/19 09:42:15;;;;;;;2.28;1.30;;;;;;;;;;5002436;28;20014;-67
2024/03/19 09:44:42;;;;;;;2.75;1.23;;;;;;;;;;5002660;28;20096;-67
2024/03/19 09:47:09;;;;;;;3.10;1.30;;;;;;;;;;5005285;28;21521;-65
2024/03/19 09:49:34;;;;;;;3.50;1.40;;;;;;;;;;5003652;28;20108;-67
2024/03/19 09:52:03;;;;;;;2.20;1.35;;;;;;;;;;5001118;28;20121;-67
2024/03/19 09:54:29;;;;;;;2.35;1.02;;;;;;;;;;5004282;28;20045;-67
2024/03/19 09:56:54;;;;;;;2.30;1.20;;;;;;;;;;4995909;28;20120;-67
2024/03/19 09:59:20;;;;;;;3.13;1.25;;;;;;;;;;5001823;28;20054;-67
2024/03/19 10:01:45;;;;;;;4.90;1.10;;;;;;;;;;5002442;28;20041;-68
2024/03/19 10:04:12;;;;;;;2.88;1.30;;;;;;;;;;5004518;28;20108;-67
2024/03/19 10:06:37;;;;;;;4.57;1.30;;;;;;;;;;5004713;28;20141;-68
2024/03/19 10:09:05;;;;;;;3.58;1.40;;;;;;;;;;5005065;28;20143;-67
2024/03/19 10:11:30;;;;;;;6.35;1.17;;;;;;;;;;4999035;28;20573;-67
2024/03/19 10:13:56;;;;;;;6.45;1.50;;;;;;;;;;5001220;28;20117;-66
2024/03/19 10:16:21;;;;;;;3.33;1.17;;;;;;;;;;5004611;28;20445;-68
2024/03/19 10:18:47;;;;;;;3.55;1.17;;;;;;;;;;5003915;28;20050;-67
2024/03/19 10:21:13;;;;;;;4.50;1.70;;;;;;;;;;5004226;28;20045;-68
2024/03/19 10:23:38;;;;;;;3.35;1.23;;;;;;;;;;5006463;28;20049;-68
2024/03/19 10:26:04;;;;;;;2.38;1.20;;;;;;;;;;5002853;28;20037;-67
2024/03/19 10:28:29;;;;;;;2.10;1.33;;;;;;;;;;5004183;28;20121;-66
2024/03/19 10:30:55;;;;;;;4.18;1.35;;;;;;;;;;5005112;28;20394;-68
2024/03/19 10:33:20;;;;;;;3.88;1.58;;;;;;;;;;5006742;28;20474;-67
2024/03/19 10:35:46;;;;;;;2.42;1.20;;;;;;;;;;5007350;28;20092;-66
2024/03/19 10:38:12;;;;;;;3.45;1.50;;;;;;;;;;4999417;28;20046;-68
2024/03/19 10:40:38;;;;;;;3.45;1.50;;;;;;;;;;5004877;28;20614;-67
2024/03/19 10:43:03;;;;;;;4.55;1.40;;;;;;;;;;5005239;28;20605;-68
2024/03/19 10:45:29;;;;;;;2.65;1.42;;;;;;;;;;5009535;28;20042;-67
2024/03/19 10:47:54;;;;;;;2.50;1.27;;;;;;;;;;5002983;28;20413;-66
2024/03/19 10:50:20;;;;;;;4.47;1.38;;;;;;;;;;5004651;28;20038;-66
2024/03/19 10:52:51;;;;;;;3.90;1.52;;;;;;;;;;5006119;28;20045;-65
2024/03/19 10:55:17;;;;;;;3.55;1.45;;;;;;;;;;4998399;28;20034;-67
2024/03/19 10:57:43;;;;;;;2.50;1.23;;;;;;;;;;5007560;28;20048;-65
2024/03/19 11:00:25;;;;;;;3.42;1.38;;;;;;;;;;5002247;28;20119;-67
2024/03/19 11:02:50;;;;;;;2.40;1.17;;;;;;;;;;5006480;28;20034;-64
2024/03/19 11:05:19;;;;;;;4.75;1.40;;;;;;;;;;5003172;28;20045;-65
2024/03/19 11:07:45;;;;;;;2.17;1.10;;;;;;;;;;5008193;28;20129;-64
2024/03/19 11:10:19;;;;;;;2.05;1.17;;;;;;;;;;5001805;28;20121;-67
2024/03/19 11:12:45;;;;;;;2.60;1.13;;;;;;;;;;5008195;28;20061;-66
2024/03/19 11:15:13;;;;;;;2.83;1.38;;;;;;;;;;5008034;28;20100;-66
2024/03/19 11:17:38;;;;;;;3.03;1.10;;;;;;;;;;5008578;28;20490;-66
2024/03/19 11:20:04;;;;;;;2.63;1.35;;;;;;;;;;5003663;28;20042;-67
2024/03/19 11:22:30;;;;;;;3.50;1.30;;;;;;;;;;5006601;28;20042;-68
2024/03/19 11:24:56;;;;;;;2.75;1.20;;;;;;;;;;5016201;28;20486;-66
2024/03/19 11:27:23;;;;;;;2.95;1.20;;;;;;;;;;5007417;28;20026;-68
2024/03/19 11:29:49;;;;;;;2.35;1.08;;;;;;;;;;5007698;28;20080;-68
2024/03/19 11:32:21;;;;;;;3.70;1.30;;;;;;;;;;5006077;28;20033;-68
2024/03/19 11:34:52;;;;;;;1.85;1.10;;;;;;;;;;5004281;28;20117;-67
2024/03/19 11:37:17;;;;;;;2.85;1.10;;;;;;;;;;5000450;28;20573;-68
2024/03/19 11:39:43;;;;;;;3.03;1.30;;;;;;;;;;5007306;28;20177;-66
2024/03/19 11:42:08;;;;;;;2.40;1.10;;;;;;;;;;5007682;28;20137;-67
2024/03/19 11:44:34;;;;;;;2.33;1.10;;;;;;;;;;5005438;28;20124;-67
2024/03/19 11:46:59;;;;;;;2.25;1.20;;;;;;;;;;5007750;28;20473;-67
2024/03/19 11:49:29;;;;;;;1.75;0.90;;;;;;;;;;5006648;28;20421;-68
2024/03/19 11:51:58;;;;;;;2.95;1.35;;;;;;;;;;5004116;28;20057;-67
2024/03/19 11:54:23;;;;;;;1.83;1.13;;;;;;;;;;5004933;28;20502;-68
2024/03/19 11:56:52;;;;;;;3.28;1.08;;;;;;;;;;5005500;28;20045;-67
2024/03/19 11:59:19;;;;;;;2.80;1.30;;;;;;;;;;5007225;28;20057;-67
2024/03/19 12:01:45;;;;;;;2.72;0.90;;;;;;;;;;4999528;28;20123;-67
2024/03/19 12:04:10;;;;;;;1.80;1.02;;;;;;;;;;5007345;28;20040;-68
2024/03/19 12:06:36;;;;;;;2.42;1.13;;;;;;;;;;5005942;28;20037;-67
2024/03/19 12:09:02;;;;;;;1.98;1.10;;;;;;;;;;4997567;28;20042;-67
2024/03/19 12:11:27;;;;;;;2.60;1.30;;;;;;;;;;5001848;28;20112;-66
2024/03/19 12:13:53;;;;;;;2.20;1.08;;;;;;;;;;5005916;28;20022;-68
2024/03/19 12:16:18;;;;;;;2.03;1.13;;;;;;;;;;5007349;28;20163;-68
2024/03/19 12:18:43;;;;;;;1.52;0.98;;;;;;;;;;5004479;28;20045;-66
2024/03/19 12:21:14;;;;;;;2.10;1.08;;;;;;;;;;5005092;28;20041;-67
2024/03/19 12:23:39;;;;;;;;;;;;;;;;;;5000496;28;20120;-68
2024/03/19 12:26:05;;;;;;;3.70;1.10;;;;;;;;;;4996990;28;20012;-68
2024/03/19 12:28:30;;;;;;;1.77;1.00;;;;;;;;;;5006267;28;20045;-69
2024/03/19 12:30:58;;;;;;;2.00;1.02;;;;;;;;;;5005685;28;20134;-69
2024/03/19 12:33:38;;;;;;;2.20;1.10;;;;;;;;;;4999134;28;20104;-68
2024/03/19 12:36:03;;;;;;;2.95;1.10;;;;;;;;;;5001185;28;20041;-64
2024/03/19 12:38:29;;;;;;;2.45;0.95;;;;;;;;;;5006555;28;20049;-71
2024/03/19 12:40:59;;;;;;;2.78;1.10;;;;;;;;;;5004229;28;20032;-67
2024/03/19 12:43:24;;;;;;;3.17;1.20;;;;;;;;;;4999961;28;20410;-66
2024/03/19 12:45:49;;;;;;;3.10;1.25;;;;;;;;;;5006540;28;20265;-66
2024/03/19 12:48:14;;;;;;;1.77;1.08;;;;;;;;;;5006646;28;20944;-64
2024/03/19 12:50:40;;;;;;;1.73;1.20;;;;;;;;;;5005605;28;20092;-64
2024/03/19 12:53:05;;;;;;;2.67;1.13;;;;;;;;;;4998644;28;20027;-64
2024/03/19 12:55:31;;;;;;;1.88;1.25;;;;;;;;;;4999389;28;20156;-63
2024/03/19 12:57:56;;;;;;;2.90;1.20;;;;;;;;;;4994843;28;20076;-63
2024/03/19 13:00:23;;;;;;;2.92;1.23;;;;;;;;;;5006034;28;20023;-63
2024/03/19 13:02:51;;;;;;;3.70;1.20;;;;;;;;;;4997438;28;20026;-64
2024/03/19 13:05:16;;;;;;;1.50;0.90;;;;;;;;;;5003116;28;20037;-64
2024/03/19 13:07:42;;;;;;;2.22;1.20;;;;;;;;;;5003708;28;20101;-65
2024/03/19 13:10:07;;;;;;;2.65;1.27;;;;;;;;;;5004248;28;20551;-64
2024/03/19 13:12:33;;;;;;;1.67;1.05;;;;;;;;;;5003990;28;20556;-64
2024/03/19 13:14:59;;;;;;;3.67;1.00;;;;;;;;;;4998548;28;20053;-64
2024/03/19 13:17:27;;;;;;;2.22;1.30;;;;;;;;;;4999209;28;20097;-64
2024/03/19 13:19:55;;;;;;;2.28;1.20;;;;;;;;;;5002185;28;20042;-64
2024/03/19 13:22:21;;;;;;;2.47;1.02;;;;;;;;;;5002526;28;20066;-64
2024/03/19 13:24:46;;;;;;;1.85;1.15;;;;;;;;;;5003305;28;20066;-64
2024/03/19 13:27:12;;;;;;;2.40;1.08;;;;;;;;;;4998789;28;20034;-64
2024/03/19 13:29:37;;;;;;;2.38;1.00;;;;;;;;;;5004573;28;20037;-64
2024/03/19 13:32:03;;;;;;;2.45;1.20;;;;;;;;;;5001564;28;20038;-64
2024/03/19 13:34:28;;;;;;;1.58;0.90;;;;;;;;;;5003867;28;20132;-65
2024/03/19 13:36:56;;;;;;;1.67;1.10;;;;;;;;;;5002261;28;20501;-65
2024/03/19 13:39:22;;;;;;;4.22;1.23;;;;;;;;;;5004622;28;20100;-65
2024/03/19 13:41:47;;;;;;;2.30;1.23;;;;;;;;;;5004787;28;20050;-65
2024/03/19 13:44:12;;;;;;;2.75;1.20;;;;;;;;;;5002999;28;20037;-65
2024/03/19 13:46:38;;;;;;;1.77;0.95;;;;;;;;;;4998503;28;20064;-65
2024/03/19 13:49:03;;;;;;;2.28;1.17;;;;;;;;;;5004642;28;20029;-65
2024/03/19 13:51:28;;;;;;;1.90;1.40;;;;;;;;;;5003101;28;20433;-65
2024/03/19 13:53:54;;;;;;;1.90;1.10;;;;;;;;;;5004267;28;20038;-64
2024/03/19 13:56:20;;;;;;;1.70;1.02;;;;;;;;;;5002369;28;20037;-65
2024/03/19 13:58:45;;;;;;;2.15;1.38;;;;;;;;;;5001227;28;20046;-65
2024/03/19 14:01:11;;;;;;;1.45;1.00;;;;;;;;;;5004477;28;20041;-65
2024/03/19 14:03:37;;;;;;;2.33;1.08;;;;;;;;;;4997890;28;20030;-65
2024/03/19 14:06:02;;;;;;;1.98;1.23;;;;;;;;;;5001331;28;20041;-65
2024/03/19 14:08:29;;;;;;;1.75;0.88;;;;;;;;;;5003690;28;20030;-64
2024/03/19 14:10:55;;;;;;;1.88;1.00;;;;;;;;;;5004014;28;20473;-64
2024/03/19 14:13:23;;;;;;;2.20;1.20;;;;;;;;;;5002934;28;20116;-64
2024/03/19 14:15:48;;;;;;;1.67;0.93;;;;;;;;;;5004150;28;20486;-63
2024/03/19 14:18:14;;;;;;;1.90;0.95;;;;;;;;;;5004806;28;20121;-64
2024/03/19 14:20:39;;;;;;;1.98;0.98;;;;;;;;;;5004031;28;20191;-64
2024/03/19 14:23:05;;;;;;;2.33;1.40;;;;;;;;;;4997202;28;21616;-64
2024/03/19 14:25:30;;;;;;;1.83;1.08;;;;;;;;;;5003890;28;20042;-64
2024/03/19 14:27:56;;;;;;;1.90;1.05;;;;;;;;;;5002816;28;20118;-65
2024/03/19 14:30:22;;;;;;;1.77;1.10;;;;;;;;;;5004032;28;20038;-64
2024/03/19 14:32:48;;;;;;;2.13;1.05;;;;;;;;;;5003826;28;20565;-64
2024/03/19 14:35:13;;;;;;;2.60;1.30;;;;;;;;;;5009434;28;20125;-64